Hawaii METAR Reports

 

PHOG - Kahului, Hawaii, USA
Distance from station: WNW 8mi, 13km
Updated: Fri, 10-Jul-2020 6:54pm HST
Few Clouds
Few Clouds
 Wind from ENE
Wind: ENE 20 mph , 31 km/h, Gust: 33 mph , 54 km/h
Temperature: 82°F , 28°C
Heat Index: 82°F , 28°C
Dew Point: 61°F , 16°C
Humidity: 48%
Barometer: 29.99 inHg , 1015.6 hPa
Clouds: Few Clouds
Visibility: 10 miles , 16 km
Cloud details: Few Clouds 2500 ft
2020/07/11 04:54 PHOG 110454Z 06017G29KT 10SM FEW025 28/16 A2999 RMK AO2 PK WND 06034/0408 SLP161 T02830161 $
PHJH - Lahaina/West Mau, Hawaii, USA
Distance from station: WNW 24mi, 39km
Updated: Fri, 10-Jul-2020 5:45pm HST
NOT Current
Few Clouds
Few Clouds
 Wind from E
Wind: E 15 mph , 24 km/h, Gust: 24 mph , 39 km/h
Temperature: 82°F , 28°C
Heat Index: 84°F , 29°C
Dew Point: 64°F , 18°C
Humidity: 55%
Barometer: 30.01 inHg , 1016.3 hPa
Clouds: Few Clouds
Visibility: 15 miles , 24 km
Cloud details: Few Clouds 3500 ft
2020/07/11 03:45 PHJH 110345Z 08013G21KT 15SM FEW035 28/18 A3001 RMK LAST
 
PHNY - Lanai City Airpo, Hawaii, USA
Distance from station: W 40mi, 65km
Updated: Fri, 10-Jul-2020 1:37pm HST
NOT Current
Overcast
Overcast
 Wind from WNW
Wind: WNW 10 mph , 17 km/h, Gust: 16 mph , 26 km/h
Temperature: 79°F , 26°C
Dew Point: 70°F , 21°C
Humidity: 74%
Barometer: 30.07 inHg , 1018.3 hPa
Clouds: Overcast
Visibility: 10 miles , 16 km
Cloud details: Overcast 2800 ft
2020/07/10 23:37 PHNY 102337Z AUTO 29009G14KT 270V340 10SM OVC028 26/21 A3007 RMK AO2
PHMK - Molokai, Hawaii, USA
Distance from station: WNW 55mi, 88km
Updated: Fri, 10-Jul-2020 6:54pm HST
Clear
Clear
 Wind from NE
Wind: NE 13 mph , 20 km/h, Gust: 24 mph , 39 km/h
Temperature: 79°F , 26°C
Dew Point: 63°F , 17°C
Humidity: 58%
Barometer: 30.02 inHg , 1016.6 hPa
Clouds: Clear
Visibility: 10 miles , 16 km
2020/07/11 04:54 PHMK 110454Z AUTO 05011G21KT 10SM CLR 26/17 A3002 RMK AO2 PK WND 05029/0358 SLP168 T02560172 TSNO
 
PHKO - Kailua/Kona, Hawaii, USA
Distance from station: SSE 79mi, 128km
Updated: Fri, 10-Jul-2020 6:53pm HST
Mostly Cloudy
Mostly Cloudy
 Wind from ESE
Wind: ESE 9 mph , 15 km/h
Temperature: 82°F , 28°C
Heat Index: 85°F , 29°C
Dew Point: 68°F , 20°C
Humidity: 62%
Barometer: 29.96 inHg , 1014.6 hPa
Clouds: Mostly Cloudy
Visibility: 10 miles , 16 km
Cloud details: Few Clouds 4100 ft
Mostly Cloudy 5000 ft
2020/07/11 04:53 PHKO 110453Z 12008KT 10SM FEW041 BKN050 28/20 A2996 RMK AO2 SLP145 T02780200
PHSF - Bradshaw Aaf/Haw, Hawaii, USA
Distance from station: SE 90mi, 145km
Updated: Fri, 10-Jul-2020 6:58pm HST
Clear
Clear
 Wind from ESE
Wind: ESE 14 mph , 22 km/h, Gust: 24 mph , 39 km/h
Temperature: 66°F , 19°C
Dew Point: 39°F , 4°C
Humidity: 37%
Barometer: 30.32 inHg , 1026.8 hPa
Clouds: Clear
Visibility: 9 miles , 14 km
2020/07/11 04:58 PHSF 110458Z AUTO 12012G21KT 9SM CLR 19/04 A3032 RMK AO2 SLP133 T01880042 $
 
PHNG - Kaneohe Mcas, Hawaii, USA
Distance from station: WNW 102mi, 164km
Updated: Fri, 10-Jul-2020 6:57pm HST
Overcast
Overcast
 Wind from E
Wind: E 16 mph , 26 km/h, Gust: 22 mph , 35 km/h
Temperature: 81°F , 27°C
Heat Index: 84°F , 29°C
Dew Point: 68°F , 20°C
Humidity: 66%
Barometer: 30.01 inHg , 1016.3 hPa
Clouds: Overcast
Visibility: 10 miles , 16 km
Cloud details: Overcast 4800 ft
2020/07/11 04:57 PHNG 110457Z 09014G19KT 10SM OVC048 27/20 A3001 RMK AO2 SLP157 T02720200 $
PHNL - Honolulu, Hawaii, USA
Distance from station: WNW 108mi, 174km
Updated: Fri, 10-Jul-2020 6:53pm HST
Mostly Cloudy
Mostly Cloudy
 Wind from ENE
Wind: ENE 15 mph , 24 km/h, Gust: 23 mph , 37 km/h
Temperature: 82°F , 28°C
Heat Index: 84°F , 29°C
Dew Point: 66°F , 19°C
Humidity: 58%
Barometer: 30.01 inHg , 1016.3 hPa
Clouds: Mostly Cloudy
Visibility: 10 miles , 16 km
Cloud details: Few Clouds 2500 ft
Mostly Cloudy 4000 ft
Mostly Cloudy 8000 ft
2020/07/11 04:53 PHNL 110453Z 06013G20KT 10SM FEW025 BKN040 BKN080 28/19 A3001 RMK AO2 SLP161 T02780189
 
PHTO - Hilo, Hawaii, USA
Distance from station: SE 114mi, 183km
Updated: Fri, 10-Jul-2020 6:53pm HST
Overcast
Overcast
 Wind from E
Wind: E 8 mph , 13 km/h
Temperature: 79°F , 26°C
Dew Point: 66°F , 19°C
Humidity: 65%
Barometer: 30.05 inHg , 1017.6 hPa
Clouds: Overcast
Visibility: 10 miles , 16 km
Cloud details: Few Clouds 3000 ft
Overcast 4600 ft
2020/07/11 04:53 PHTO 110453Z 08007KT 10SM FEW030 OVC046 26/19 A3005 RMK AO2 SLP174 T02610189
PHJR - Kalaeloa, Hawaii, USA
Distance from station: WNW 117mi, 189km
Updated: Fri, 10-Jul-2020 6:53pm HST
Mostly Cloudy
Mostly Cloudy
 Wind from ENE
Wind: ENE 8 mph , 13 km/h
Temperature: 82°F , 28°C
Heat Index: 84°F , 29°C
Dew Point: 66°F , 19°C
Humidity: 58%
Barometer: 30.02 inHg , 1016.6 hPa
Clouds: Mostly Cloudy
Visibility: 10 miles , 16 km
Cloud details: Mostly Cloudy 4200 ft
2020/07/11 04:53 PHJR 110453Z 06007KT 10SM BKN042 28/19 A3002 RMK AO2 SLP170 T02780194
 
PHHI - Wheeler Afb/Oahu, Hawaii, USA
Distance from station: WNW 120mi, 193km
Updated: Fri, 10-Jul-2020 6:56pm HST
Mostly Cloudy
Mostly Cloudy
 Wind from ENE
Wind: ENE 8 mph , 13 km/h
Temperature: 75°F , 24°C
Dew Point: 68°F , 20°C
Humidity: 78%
Barometer: 30.02 inHg , 1016.6 hPa
Clouds: Mostly Cloudy
Visibility: 10 miles , 16 km
Cloud details: Partly Cloudy 2500 ft
Partly Cloudy 3000 ft
Mostly Cloudy 3600 ft
2020/07/11 04:56 PHHI 110456Z AUTO 07007KT 10SM SCT025 SCT030 BKN036 24/20 A3002 RMK AO2 SLP155 T02390198 $
PHLI - Lihue/Kauai Is, Hawaii, USA
Distance from station: WNW 209mi, 336km
Updated: Fri, 10-Jul-2020 6:53pm HST
Clear
Clear
 Wind from ENE
Wind: ENE 18 mph , 30 km/h
Temperature: 81°F , 27°C
Heat Index: 85°F , 29°C
Dew Point: 72°F , 22°C
Humidity: 74%
Barometer: 30.04 inHg , 1017.3 hPa
Clouds: Clear
Visibility: 10 miles , 16 km
2020/07/11 04:53 PHLI 110453Z 06016KT 10SM CLR 27/22 A3004 RMK AO2 SLP168 T02670217
 
PHBK - Barking Sands/Ka, Hawaii, USA
Distance from station: WNW 237mi, 382km
Updated: Fri, 10-Jul-2020 7:11pm HST
Overcast
Overcast
 Wind from WNW
Wind: WNW 6 mph , 9 km/h
Temperature: 82°F , 28°C
Heat Index: 86°F , 30°C
Dew Point: 72°F , 22°C
Humidity: 70%
Barometer: 29.99 inHg , 1015.6 hPa
Clouds: Overcast
Visibility: 10 miles , 16 km
Cloud details: Overcast 5000 ft
2020/07/11 05:11 PHBK 110511Z AUTO 29005KT 10SM OVC050 28/22 A2999 RMK AO2 T02830222